Time;durP1;ratioP1;P1;durP2;ratioP2;P2;SDS_P1;SDS_P2;PMS_P1;PMS_P2;Temp;Humidity;BMP_temperature;BMP_pressure;BME280_temperature;BME280_humidity;BME280_pressure;Samples;Min_cycle;Max_cycle;Signal;HPM_P1;HPM_P2
2022/10/23 00:03:38;;;;;;;24.00;14.20;;;;;;;10.55;100.00;98918.33;214773;1309;24579;-74
2022/10/23 00:08:41;;;;;;;26.20;15.00;;;;;;;10.49;100.00;98924.19;214646;1309;22591;-74
2022/10/23 00:13:43;;;;;;;28.10;15.80;;;;;;;10.46;100.00;98925.13;214663;1309;22611;-74
2022/10/23 00:18:45;;;;;;;24.00;13.10;;;;;;;10.44;100.00;98923.53;214489;1309;24363;-73
2022/10/23 00:23:46;;;;;;;22.40;13.60;;;;;;;10.42;100.00;98925.54;214699;1304;22505;-74
2022/10/23 00:28:51;;;;;;;23.60;14.20;;;;;;;10.39;100.00;98924.81;214607;1309;22473;-73
2022/10/23 00:33:53;;;;;;;25.80;15.70;;;;;;;10.35;100.00;98926.98;214764;1307;22480;-74
2022/10/23 00:38:55;;;;;;;26.20;13.90;;;;;;;10.34;100.00;98925.18;214677;1309;25394;-74
2022/10/23 00:43:57;;;;;;;26.70;15.30;;;;;;;10.33;100.00;98929.23;214533;1307;22536;-73
2022/10/23 00:49:00;;;;;;;25.30;14.80;;;;;;;10.33;100.00;98933.25;214599;1309;22516;-73
2022/10/23 00:54:03;;;;;;;33.10;18.70;;;;;;;10.31;100.00;98933.53;214863;1309;22514;-74
2022/10/23 00:59:26;;;;;;;31.70;18.60;;;;;;;10.26;99.98;98929.63;214689;1307;22498;-75
2022/10/23 01:04:29;;;;;;;33.10;18.90;;;;;;;10.21;100.00;98931.75;214635;1309;22467;-75
2022/10/23 01:09:35;;;;;;;36.00;19.60;;;;;;;10.14;100.00;98934.86;214515;1304;22689;-73
2022/10/23 01:15:04;;;;;;;34.00;20.30;;;;;;;10.05;100.00;98938.91;214678;1308;22599;-74
2022/10/23 01:20:35;;;;;;;34.70;19.30;;;;;;;9.97;100.00;98943.79;214688;1309;23303;-74
2022/10/23 01:26:01;;;;;;;35.60;19.70;;;;;;;9.88;100.00;98947.34;214542;1309;25216;-74
2022/10/23 01:31:10;;;;;;;35.10;18.80;;;;;;;9.78;100.00;98943.23;214593;1296;23702;-74
2022/10/23 01:36:15;;;;;;;33.80;18.80;;;;;;;9.68;100.00;98939.40;215009;1309;22475;-74
2022/10/23 01:41:26;;;;;;;34.90;20.00;;;;;;;9.62;100.00;98934.67;214588;1297;22599;-75
2022/10/23 01:46:30;;;;;;;35.40;17.80;;;;;;;9.58;100.00;98939.40;214748;1309;26845;-74
2022/10/23 01:51:35;;;;;;;36.60;18.80;;;;;;;9.61;100.00;98944.52;214590;1309;25298;-74
2022/10/23 01:56:43;;;;;;;31.40;18.20;;;;;;;9.66;100.00;98947.48;214699;1304;22544;-74
2022/10/23 02:01:50;;;;;;;34.40;18.40;;;;;;;9.69;100.00;98944.19;214507;1309;22494;-75
2022/10/23 02:06:52;;;;;;;34.30;19.20;;;;;;;9.72;100.00;98945.67;214699;1309;147359;-74
2022/10/23 02:12:05;;;;;;;36.50;19.90;;;;;;;9.74;100.00;98943.63;214754;1309;22477;-74
2022/10/23 02:17:25;;;;;;;40.50;21.30;;;;;;;9.74;100.00;98944.01;214674;1309;25360;-74
2022/10/23 02:22:37;;;;;;;39.60;20.90;;;;;;;9.70;100.00;98947.84;214433;1304;22574;-74
2022/10/23 02:27:49;;;;;;;34.20;20.00;;;;;;;9.64;100.00;98954.35;214631;1307;22794;-74
2022/10/23 02:32:54;;;;;;;34.70;18.60;;;;;;;9.53;100.00;98955.44;214552;1309;22467;-74
2022/10/23 02:37:58;;;;;;;40.80;21.90;;;;;;;9.41;100.00;98952.29;214585;1309;22502;-74
2022/10/23 02:43:08;;;;;;;36.30;19.20;;;;;;;9.33;100.00;98956.55;214627;1309;22624;-74
2022/10/23 02:48:17;;;;;;;34.60;20.00;;;;;;;9.27;100.00;98955.20;214591;1309;24139;-74
2022/10/23 02:53:47;;;;;;;38.90;21.30;;;;;;;9.19;100.00;98950.10;214511;1309;22515;-74
2022/10/23 02:59:42;;;;;;;39.10;20.40;;;;;;;9.14;100.00;98953.17;214656;1309;24263;-74
2022/10/23 03:04:45;;;;;;;37.70;19.50;;;;;;;9.11;100.00;98957.09;214651;1309;22521;-74
2022/10/23 03:09:47;;;;;;;37.80;19.80;;;;;;;9.14;100.00;98964.77;214688;1309;22542;-74
2022/10/23 03:14:49;;;;;;;38.90;19.40;;;;;;;9.21;100.00;98967.95;214647;1309;23359;-74
2022/10/23 03:19:51;;;;;;;30.80;17.10;;;;;;;9.28;100.00;98968.66;214760;1309;24254;-74
2022/10/23 03:24:53;;;;;;;31.90;15.30;;;;;;;9.35;100.00;98972.27;214513;1309;25379;-74
2022/10/23 03:29:55;;;;;;;31.90;15.80;;;;;;;9.43;100.00;98971.80;214698;1297;22552;-74
2022/10/23 03:34:57;;;;;;;24.10;13.80;;;;;;;9.49;100.00;98974.44;214740;1309;23060;-73
2022/10/23 03:39:58;;;;;;;28.70;14.80;;;;;;;9.54;100.00;98967.30;214616;1309;22494;-74
2022/10/23 03:45:03;;;;;;;27.70;15.20;;;;;;;9.56;100.00;98970.29;214472;1304;22513;-74
2022/10/23 03:50:09;;;;;;;24.30;13.80;;;;;;;9.56;100.00;98971.14;214592;1309;24337;-74
2022/10/23 03:55:12;;;;;;;26.90;13.90;;;;;;;9.57;100.00;98974.18;214766;1309;24637;-74
2022/10/23 04:00:14;;;;;;;23.90;14.20;;;;;;;9.58;100.00;98971.39;214707;1309;22530;-74
2022/10/23 04:05:20;;;;;;;31.50;16.50;;;;;;;9.57;100.00;98964.33;214693;1309;24976;-73
2022/10/23 04:10:27;;;;;;;34.80;17.30;;;;;;;9.58;100.00;98962.30;214714;1310;25305;-74
2022/10/23 04:15:29;;;;;;;31.00;15.70;;;;;;;9.60;100.00;98960.20;214753;1304;22727;-74
2022/10/23 04:20:31;;;;;;;37.30;19.80;;;;;;;9.64;100.00;98964.72;214616;1310;25448;-73
2022/10/23 04:25:36;;;;;;;32.50;17.10;;;;;;;9.69;100.00;98960.23;214710;1309;22459;-73
2022/10/23 04:30:38;;;;;;;30.00;16.60;;;;;;;9.74;100.00;98960.64;214655;1301;22938;-75
2022/10/23 04:35:40;;;;;;;30.20;16.10;;;;;;;9.79;100.00;98958.11;214601;1309;22474;-74
2022/10/23 04:40:41;;;;;;;30.50;16.10;;;;;;;9.82;100.00;98957.17;214611;1309;24278;-74
2022/10/23 04:45:43;;;;;;;29.50;16.50;;;;;;;9.86;100.00;98959.50;214547;1301;22630;-74
2022/10/23 04:50:57;;;;;;;30.40;17.20;;;;;;;9.87;100.00;98957.19;214543;1309;22523;-74
2022/10/23 04:56:06;;;;;;;31.60;15.70;;;;;;;9.87;100.00;98959.00;214490;1309;22548;-74
2022/10/23 05:01:21;;;;;;;37.50;18.70;;;;;;;9.88;100.00;98963.27;214701;1309;22466;-74
2022/10/23 05:06:23;;;;;;;35.70;17.60;;;;;;;9.90;100.00;98966.26;214606;1309;23348;-73
2022/10/23 05:11:55;;;;;;;36.00;17.20;;;;;;;9.95;100.00;98959.97;214569;1308;22471;-75
2022/10/23 05:17:01;;;;;;;37.00;17.50;;;;;;;9.98;100.00;98965.23;214584;1309;24351;-74
2022/10/23 05:22:04;;;;;;;36.80;16.60;;;;;;;10.00;100.00;98968.91;214495;1309;24895;-74
2022/10/23 05:27:27;;;;;;;35.60;17.20;;;;;;;10.02;100.00;98983.02;214659;1309;22877;-76
2022/10/23 05:32:31;;;;;;;36.90;17.70;;;;;;;10.03;100.00;98998.33;214645;1309;25286;-74
2022/10/23 05:37:33;;;;;;;31.80;16.20;;;;;;;10.02;100.00;98996.36;214534;1308;22461;-74
2022/10/23 05:42:46;;;;;;;30.40;15.40;;;;;;;10.01;100.00;98996.31;214481;1309;25277;-74
2022/10/23 05:47:53;;;;;;;34.70;16.10;;;;;;;10.01;100.00;98990.59;214736;1309;24869;-74
2022/10/23 05:53:35;;;;;;;34.50;16.30;;;;;;;10.01;100.00;99000.21;214707;1309;24452;-76
2022/10/23 05:58:49;;;;;;;32.50;14.90;;;;;;;10.02;100.00;99008.14;214674;1309;25286;-74
2022/10/23 06:04:04;;;;;;;31.20;15.60;;;;;;;10.06;100.00;99020.21;214609;1309;25258;-74
2022/10/23 06:09:24;;;;;;;33.40;15.80;;;;;;;10.08;100.00;99019.88;214711;1304;22528;-74
2022/10/23 06:14:29;;;;;;;29.10;15.10;;;;;;;10.10;100.00;99029.55;214625;1309;23888;-73
2022/10/23 06:19:32;;;;;;;29.20;14.10;;;;;;;10.16;100.00;99041.92;214776;1309;22487;-74
2022/10/23 06:24:33;;;;;;;27.00;13.70;;;;;;;10.21;100.00;99045.05;214711;1309;24080;-74
2022/10/23 06:29:38;;;;;;;27.60;14.10;;;;;;;10.23;100.00;99037.11;214561;1310;22514;-74
2022/10/23 06:34:40;;;;;;;27.70;13.70;;;;;;;10.28;100.00;99043.50;214565;1309;25225;-74
2022/10/23 06:39:42;;;;;;;23.70;12.00;;;;;;;10.35;100.00;99047.81;214587;1309;22486;-75
2022/10/23 06:44:50;;;;;;;21.20;11.30;;;;;;;10.42;100.00;99053.92;214624;1309;22481;-74
2022/10/23 06:50:06;;;;;;;20.20;11.70;;;;;;;10.50;100.00;99050.00;214537;1309;22527;-74
2022/10/23 06:55:14;;;;;;;23.00;11.30;;;;;;;10.57;100.00;99043.57;214534;1309;23084;-74
2022/10/23 07:00:16;;;;;;;18.90;10.80;;;;;;;10.63;100.00;99041.75;214617;1309;22506;-74
2022/10/23 07:05:23;;;;;;;19.50;10.70;;;;;;;10.74;100.00;99040.03;214511;1305;22497;-72
2022/10/23 07:10:26;;;;;;;23.10;12.90;;;;;;;10.86;100.00;99040.40;214632;1309;22525;-74
2022/10/23 07:15:31;;;;;;;18.50;10.80;;;;;;;10.95;100.00;99043.53;214697;1301;22501;-74
2022/10/23 07:20:34;;;;;;;19.70;11.50;;;;;;;11.04;100.00;99051.53;214712;1309;22487;-74
2022/10/23 07:25:36;;;;;;;17.30;10.50;;;;;;;11.15;100.00;99056.55;214546;1310;25431;-75
2022/10/23 07:30:40;;;;;;;18.20;11.40;;;;;;;11.24;100.00;99051.38;214668;1308;22469;-74
2022/10/23 07:35:46;;;;;;;19.40;10.90;;;;;;;11.29;100.00;99043.20;214489;1310;22465;-74
2022/10/23 07:40:56;;;;;;;20.80;11.90;;;;;;;11.37;100.00;99049.29;214601;1309;22476;-74
2022/10/23 07:45:58;;;;;;;17.30;11.20;;;;;;;11.45;100.00;99056.91;214646;1309;22535;-73
2022/10/23 07:51:11;;;;;;;19.00;11.80;;;;;;;11.50;100.00;99067.98;214596;1310;25441;-74
2022/10/23 07:56:22;;;;;;;20.40;11.90;;;;;;;11.48;100.00;99073.26;214561;1312;25293;-73
2022/10/23 08:01:47;;;;;;;;;;;;;;;11.49;99.99;99065.89;214680;1310;24253;-74
2022/10/23 08:06:55;;;;;;;21.60;11.60;;;;;;;11.54;99.97;99059.86;214908;1310;22591;-74
2022/10/23 08:11:57;;;;;;;20.30;12.00;;;;;;;11.60;100.00;99058.88;214724;1309;24895;-73
2022/10/23 08:17:00;;;;;;;18.80;10.70;;;;;;;11.71;100.00;99058.04;214699;1309;22544;-74
2022/10/23 08:22:45;;;;;;;17.60;11.30;;;;;;;11.80;99.64;99074.55;214715;1298;22568;-75
2022/10/23 08:27:52;;;;;;;19.30;11.70;;;;;;;11.88;99.59;99083.64;214635;1309;25258;-74
2022/10/23 08:32:54;;;;;;;17.30;10.90;;;;;;;11.91;99.32;99079.84;214518;1309;22477;-74
2022/10/23 08:37:56;;;;;;;18.90;11.30;;;;;;;11.93;99.02;99093.08;214710;1310;22545;-74
2022/10/23 08:43:10;;;;;;;19.30;12.30;;;;;;;11.96;99.24;99100.16;214604;1310;24599;-74
2022/10/23 08:48:29;;;;;;;18.40;12.80;;;;;;;12.02;99.05;99096.57;214850;1303;22485;-74
2022/10/23 08:54:20;;;;;;;20.80;14.20;;;;;;;12.06;99.00;99111.98;214605;1309;22911;-75
2022/10/23 08:59:42;;;;;;;18.10;12.50;;;;;;;12.09;98.62;99112.33;214756;1309;25414;-74
2022/10/23 09:04:47;;;;;;;17.40;11.20;;;;;;;12.12;98.80;99120.81;214832;1309;23240;-74
2022/10/23 09:10:02;;;;;;;17.90;10.70;;;;;;;12.18;98.70;99124.23;214532;1309;22483;-74
2022/10/23 09:15:20;;;;;;;16.50;9.50;;;;;;;12.27;98.80;99123.84;214735;1309;24071;-74
2022/10/23 09:20:26;;;;;;;15.00;10.10;;;;;;;12.37;98.41;99118.80;214686;1309;25466;-75
2022/10/23 09:25:32;;;;;;;13.50;8.80;;;;;;;12.45;98.27;99119.65;214581;1309;22497;-73
2022/10/23 09:30:35;;;;;;;12.60;8.80;;;;;;;12.56;97.93;99119.64;214738;1309;22481;-74
2022/10/23 09:35:37;;;;;;;11.60;8.10;;;;;;;12.62;97.61;99123.58;214694;1309;22591;-74
2022/10/23 09:40:41;;;;;;;13.10;8.60;;;;;;;12.71;97.36;99127.80;214780;1309;22497;-74
2022/10/23 09:46:01;;;;;;;13.00;8.40;;;;;;;12.78;97.06;99122.41;214623;1309;22474;-74
2022/10/23 09:51:16;;;;;;;15.10;9.50;;;;;;;12.87;96.54;99120.11;214461;1308;22978;-74
2022/10/23 09:56:26;;;;;;;14.20;8.10;;;;;;;12.89;96.02;99119.91;214797;1309;24451;-74
2022/10/23 10:01:32;;;;;;;12.50;8.40;;;;;;;12.93;95.76;99116.52;214710;1309;24316;-73
2022/10/23 10:06:57;;;;;;;13.30;7.70;;;;;;;12.96;95.29;99111.85;214519;1309;22472;-74
2022/10/23 10:12:21;;;;;;;11.60;7.10;;;;;;;13.07;95.37;99101.21;214577;1309;24337;-74
2022/10/23 10:17:42;;;;;;;9.20;6.00;;;;;;;13.23;94.73;99092.38;214634;1309;24088;-74
2022/10/23 10:23:12;;;;;;;10.90;5.70;;;;;;;13.40;94.68;99072.70;214968;1302;22478;-74
2022/10/23 10:28:46;;;;;;;8.40;5.70;;;;;;;13.58;93.79;99071.76;214732;1300;22540;-73
2022/10/23 10:33:59;;;;;;;10.80;7.10;;;;;;;13.74;93.11;99067.45;214409;1302;23739;-74
2022/10/23 10:39:07;;;;;;;13.70;8.90;;;;;;;13.93;92.60;99057.40;214656;1309;25384;-74
2022/10/23 10:44:33;;;;;;;12.90;6.40;;;;;;;14.14;91.61;99054.34;214493;1309;22468;-74
2022/10/23 10:49:52;;;;;;;7.90;5.70;;;;;;;14.35;91.40;99056.37;214520;1309;22743;-74
2022/10/23 10:55:27;;;;;;;8.90;6.20;;;;;;;14.53;90.91;99048.08;214675;1309;25277;-75
2022/10/23 11:00:32;;;;;;;10.80;6.20;;;;;;;14.56;90.32;99039.48;214697;1309;22472;-74
2022/10/23 11:05:39;;;;;;;9.90;6.60;;;;;;;14.61;90.38;99030.69;214664;1309;24550;-74
2022/10/23 11:10:45;;;;;;;9.70;6.20;;;;;;;14.66;89.39;99025.23;214538;1309;24238;-74
2022/10/23 11:15:47;;;;;;;8.20;5.50;;;;;;;14.64;88.93;99019.56;214575;1309;22524;-74
2022/10/23 11:21:11;;;;;;;9.60;7.20;;;;;;;14.59;88.69;99010.34;214644;1309;24257;-75
2022/10/23 11:26:38;;;;;;;9.40;6.50;;;;;;;14.63;88.51;99006.38;214619;1309;22472;-73
2022/10/23 11:31:55;;;;;;;7.70;5.60;;;;;;;14.81;88.91;99003.83;214566;1309;22589;-74
2022/10/23 11:37:03;;;;;;;8.70;6.70;;;;;;;15.10;88.53;98995.90;214661;1309;25261;-75
2022/10/23 11:42:05;;;;;;;10.00;6.10;;;;;;;15.45;89.02;98979.21;214496;1309;26763;-73
2022/10/23 11:47:32;;;;;;;8.00;6.20;;;;;;;15.88;88.64;98967.75;214714;1309;24200;-77
2022/10/23 11:52:59;;;;;;;7.60;5.20;;;;;;;16.33;87.37;98954.60;214755;1301;22606;-74
2022/10/23 11:58:20;;;;;;;8.80;5.30;;;;;;;16.54;85.80;98942.73;214765;1309;25309;-74
2022/10/23 12:03:51;;;;;;;8.70;6.10;;;;;;;16.80;85.79;98939.77;214819;1304;22459;-75
2022/10/23 12:08:59;;;;;;;8.60;5.60;;;;;;;17.00;84.69;98934.60;214786;1309;25338;-77
2022/10/23 12:14:01;;;;;;;7.20;5.30;;;;;;;16.98;82.92;98933.37;214729;1309;22477;-75
2022/10/23 12:19:18;;;;;;;9.90;6.10;;;;;;;16.88;82.79;98934.36;214731;1309;22619;-72
2022/10/23 12:24:54;;;;;;;7.40;5.70;;;;;;;16.82;82.67;98933.52;214686;1309;24414;-75
2022/10/23 12:30:02;;;;;;;9.00;5.30;;;;;;;16.82;83.34;98925.75;214619;1309;22482;-74
2022/10/23 12:35:17;;;;;;;8.20;5.10;;;;;;;16.82;83.31;98922.13;214622;1309;24341;-75
2022/10/23 12:40:19;;;;;;;7.90;5.40;;;;;;;16.79;82.75;98915.90;214669;1309;25340;-74
2022/10/23 12:45:28;;;;;;;6.30;4.60;;;;;;;16.72;82.68;98911.31;214666;1309;22502;-75
2022/10/23 12:50:32;;;;;;;8.90;5.30;;;;;;;16.67;82.55;98903.90;214541;1309;22498;-74
2022/10/23 12:55:52;;;;;;;7.30;4.60;;;;;;;16.66;82.92;98898.52;214557;1309;22508;-74
2022/10/23 13:00:56;;;;;;;9.40;6.20;;;;;;;16.63;82.78;98899.42;214444;1308;22478;-74
2022/10/23 13:06:03;;;;;;;8.00;5.20;;;;;;;16.62;82.79;98905.32;214764;1301;22586;-74
2022/10/23 13:11:07;;;;;;;7.40;4.90;;;;;;;16.64;82.86;98902.33;214800;1309;24302;-74
2022/10/23 13:16:18;;;;;;;6.70;4.30;;;;;;;16.63;82.27;98894.15;214456;1309;25288;-74
2022/10/23 13:21:26;;;;;;;6.60;4.40;;;;;;;16.65;82.67;98886.92;214687;1309;23488;-74
2022/10/23 13:26:34;;;;;;;6.80;5.20;;;;;;;16.73;82.68;98883.83;214719;1308;25061;-76
2022/10/23 13:31:36;;;;;;;9.00;4.80;;;;;;;16.77;82.81;98885.36;214886;1305;22506;-74
2022/10/23 13:36:54;;;;;;;7.90;4.80;;;;;;;16.77;82.54;98883.20;214521;1309;22529;-74
2022/10/23 13:42:00;;;;;;;8.90;4.70;;;;;;;16.77;82.83;98870.84;214769;1309;22483;-74
2022/10/23 13:47:03;;;;;;;9.00;4.70;;;;;;;16.72;82.70;98873.46;214739;1309;25396;-74
2022/10/23 13:52:10;;;;;;;7.10;4.60;;;;;;;16.67;82.66;98878.72;214699;1309;22511;-74
2022/10/23 13:57:14;;;;;;;7.90;4.10;;;;;;;16.53;82.09;98872.16;214514;1308;24011;-74
2022/10/23 14:02:21;;;;;;;14.00;8.90;;;;;;;16.35;82.30;98868.27;214661;1309;22463;-74
2022/10/23 14:07:23;;;;;;;18.60;13.20;;;;;;;16.25;82.86;98859.83;214624;1309;113653;-74
2022/10/23 14:12:25;;;;;;;7.10;5.00;;;;;;;16.16;83.04;98856.94;214649;1309;22628;-74
2022/10/23 14:17:27;;;;;;;6.50;4.40;;;;;;;16.06;83.22;98861.77;214671;1309;24253;-73
2022/10/23 14:22:29;;;;;;;6.70;4.30;;;;;;;15.95;83.13;98864.68;214763;1309;23281;-74
2022/10/23 14:27:31;;;;;;;5.90;4.30;;;;;;;15.84;83.44;98859.84;214600;1309;23962;-74
2022/10/23 14:32:33;;;;;;;6.10;3.90;;;;;;;15.76;83.72;98862.16;214733;1309;22496;-74
2022/10/23 14:37:34;;;;;;;4.60;3.40;;;;;;;15.68;83.89;98863.75;214447;1309;24327;-73
2022/10/23 14:42:36;;;;;;;5.70;4.00;;;;;;;15.59;83.95;98856.43;214675;1302;22593;-74
2022/10/23 14:47:38;;;;;;;4.70;3.50;;;;;;;15.51;84.26;98848.55;214568;1309;23869;-75
2022/10/23 14:52:40;;;;;;;5.90;3.50;;;;;;;15.40;84.20;98845.75;214438;1309;24410;-73
2022/10/23 14:57:42;;;;;;;5.20;3.50;;;;;;;15.26;84.25;98839.20;214717;1309;22501;-74
2022/10/23 15:02:44;;;;;;;3.50;2.80;;;;;;;15.13;84.39;98836.09;214692;1309;24410;-73
2022/10/23 15:07:46;;;;;;;6.60;5.20;;;;;;;15.00;84.59;98836.13;214502;1309;22529;-74
2022/10/23 15:12:48;;;;;;;5.50;3.70;;;;;;;14.87;84.80;98830.52;214486;1305;22513;-74
2022/10/23 15:17:50;;;;;;;5.70;4.00;;;;;;;14.75;85.18;98824.65;214652;1309;22471;-74
2022/10/23 15:22:52;;;;;;;5.70;4.00;;;;;;;14.65;85.42;98829.13;214627;1309;25452;-74
2022/10/23 15:27:54;;;;;;;9.00;4.30;;;;;;;14.55;85.69;98824.45;214679;1308;22527;-74
2022/10/23 15:32:55;;;;;;;6.40;4.30;;;;;;;14.40;85.94;98817.21;214589;1309;25225;-74
2022/10/23 15:37:57;;;;;;;8.00;4.80;;;;;;;14.25;86.15;98823.12;214662;1309;22550;-74
2022/10/23 15:42:59;;;;;;;7.50;5.10;;;;;;;14.09;86.26;98822.26;214825;1295;25377;-74
2022/10/23 15:48:01;;;;;;;6.30;5.20;;;;;;;13.92;86.56;98809.92;214794;1309;22937;-74
2022/10/23 15:53:03;;;;;;;8.30;4.90;;;;;;;13.75;86.78;98812.70;214506;1309;22738;-74
2022/10/23 15:58:05;;;;;;;9.40;5.90;;;;;;;13.57;86.97;98823.46;214755;1309;23288;-74
2022/10/23 16:03:07;;;;;;;12.10;7.20;;;;;;;13.38;87.18;98833.27;214698;1309;22643;-74
2022/10/23 16:08:09;;;;;;;15.00;8.30;;;;;;;13.21;87.54;98836.49;214489;1309;23223;-74
2022/10/23 16:13:11;;;;;;;17.80;10.40;;;;;;;13.04;87.90;98846.23;214499;1309;22519;-74
2022/10/23 16:18:14;;;;;;;18.30;10.60;;;;;;;12.90;88.14;98838.41;214610;1309;22595;-75
2022/10/23 16:23:16;;;;;;;18.80;10.60;;;;;;;12.75;88.34;98841.77;214656;1309;22628;-74
2022/10/23 16:28:18;;;;;;;20.30;12.00;;;;;;;12.60;88.62;98841.11;214636;1309;22596;-74
2022/10/23 16:33:20;;;;;;;18.50;11.50;;;;;;;12.45;88.79;98842.27;214512;1309;26484;-74
2022/10/23 16:38:22;;;;;;;17.50;11.00;;;;;;;12.30;89.11;98845.61;214716;1295;23036;-73
2022/10/23 16:43:25;;;;;;;18.10;11.50;;;;;;;12.17;89.48;98850.70;214724;1304;25081;-74
2022/10/23 16:48:51;;;;;;;17.20;11.20;;;;;;;12.03;89.63;98847.23;214417;1309;22465;-74
2022/10/23 16:53:54;;;;;;;20.70;11.70;;;;;;;11.94;90.12;98858.61;214691;1301;22498;-74
2022/10/23 16:58:58;;;;;;;18.00;11.20;;;;;;;11.87;90.33;98865.14;214649;1302;24258;-74
2022/10/23 17:04:07;;;;;;;22.70;13.10;;;;;;;11.80;90.46;98878.31;214539;1309;22516;-74
2022/10/23 17:09:09;;;;;;;25.50;15.50;;;;;;;11.74;90.79;98879.11;214711;1309;22466;-74
2022/10/23 17:14:17;;;;;;;28.90;17.10;;;;;;;11.70;91.24;98873.96;214624;1309;22482;-74
2022/10/23 17:19:22;;;;;;;32.10;18.20;;;;;;;11.67;91.52;98863.77;214650;1309;22514;-74
2022/10/23 17:24:45;;;;;;;29.90;17.30;;;;;;;11.65;91.71;98870.35;214704;1309;22464;-74
2022/10/23 17:29:52;;;;;;;30.90;18.90;;;;;;;11.60;91.81;98865.05;214699;1309;22519;-74
2022/10/23 17:34:53;;;;;;;41.70;23.70;;;;;;;11.56;92.27;98858.58;214693;1309;24402;-74
2022/10/23 17:39:55;;;;;;;49.30;28.40;;;;;;;11.51;92.38;98856.29;214738;1309;25313;-75
2022/10/23 17:45:02;;;;;;;51.50;28.80;;;;;;;11.45;92.62;98851.87;214530;1309;23226;-74
2022/10/23 17:50:08;;;;;;;45.80;27.00;;;;;;;11.39;92.84;98843.70;214661;1309;22513;-74
2022/10/23 17:55:10;;;;;;;42.80;24.50;;;;;;;11.34;93.12;98845.39;214602;1309;22603;-73
2022/10/23 18:00:12;;;;;;;49.80;24.80;;;;;;;11.28;93.11;98836.73;214604;1309;22478;-74
2022/10/23 18:05:14;;;;;;;42.10;22.50;;;;;;;11.23;93.24;98838.41;214692;1309;22498;-74
2022/10/23 18:10:16;;;;;;;43.70;25.10;;;;;;;11.20;93.65;98829.34;214502;1309;24471;-74
2022/10/23 18:15:18;;;;;;;52.00;29.60;;;;;;;11.18;93.91;98818.77;214571;1309;22469;-74
2022/10/23 18:20:20;;;;;;;52.60;29.10;;;;;;;11.18;94.24;98822.89;214623;1309;22489;-74
2022/10/23 18:25:21;;;;;;;51.60;29.10;;;;;;;11.16;94.22;98811.12;214763;1309;22680;-74
2022/10/23 18:30:23;;;;;;;37.90;24.40;;;;;;;11.12;94.51;98806.66;214740;1309;25261;-74
2022/10/23 18:35:25;;;;;;;48.50;26.70;;;;;;;11.09;94.77;98800.11;214731;1302;22486;-75
2022/10/23 18:40:28;;;;;;;43.70;26.00;;;;;;;11.07;94.85;98795.22;214593;1309;22609;-74
2022/10/23 18:45:31;;;;;;;41.40;24.40;;;;;;;11.03;95.11;98793.13;214611;1309;24269;-75
2022/10/23 18:50:37;;;;;;;41.00;25.60;;;;;;;10.99;95.10;98802.67;214566;1309;25273;-74
2022/10/23 18:55:48;;;;;;;41.70;23.20;;;;;;;10.93;95.22;98805.05;214628;1309;25488;-74
2022/10/23 19:00:50;;;;;;;42.20;23.10;;;;;;;10.87;95.44;98809.42;214623;1304;22498;-74
2022/10/23 19:05:52;;;;;;;39.00;24.30;;;;;;;10.79;95.49;98806.70;214390;1309;22489;-74
2022/10/23 19:10:56;;;;;;;38.40;24.70;;;;;;;10.70;95.48;98809.70;214628;1309;22554;-75
2022/10/23 19:15:58;;;;;;;38.90;22.70;;;;;;;10.62;95.78;98805.73;214674;1309;22481;-75
2022/10/23 19:21:03;;;;;;;41.90;23.70;;;;;;;10.53;95.77;98812.02;214477;1309;22601;-74
2022/10/23 19:26:08;;;;;;;39.70;23.10;;;;;;;10.44;95.93;98809.38;214723;1309;25461;-74
2022/10/23 19:31:11;;;;;;;44.60;24.50;;;;;;;10.37;96.25;98808.77;214666;1309;23173;-75
2022/10/23 19:36:13;;;;;;;42.80;24.20;;;;;;;10.30;96.16;98812.95;214704;1309;22489;-74
2022/10/23 19:41:16;;;;;;;44.80;26.90;;;;;;;10.22;96.12;98810.24;214617;1309;24258;-74
2022/10/23 19:46:18;;;;;;;56.00;32.50;;;;;;;10.15;96.35;98796.95;214575;1309;22532;-74
2022/10/23 19:51:20;;;;;;;62.90;36.10;;;;;;;10.10;96.66;98781.80;214676;1309;22613;-74
2022/10/23 19:56:22;;;;;;;74.50;38.30;;;;;;;10.06;96.80;98779.90;214530;1309;22479;-74
2022/10/23 20:01:24;;;;;;;68.00;38.00;;;;;;;10.04;97.00;98780.52;214569;1309;22479;-74
2022/10/23 20:06:35;;;;;;;59.70;34.30;;;;;;;10.01;97.07;98772.58;214753;1309;25869;-74
2022/10/23 20:11:38;;;;;;;61.90;33.50;;;;;;;9.96;97.19;98769.05;214547;1309;22545;-72
2022/10/23 20:16:46;;;;;;;47.60;28.50;;;;;;;9.89;97.01;98759.59;214552;1309;22520;-72
2022/10/23 20:21:50;;;;;;;56.30;31.50;;;;;;;9.78;96.82;98749.64;214615;1309;22668;-74
2022/10/23 20:26:54;;;;;;;63.00;34.50;;;;;;;9.65;96.91;98744.47;214542;1309;23406;-74
2022/10/23 20:31:56;;;;;;;64.70;36.10;;;;;;;9.54;96.86;98730.14;214520;1309;22475;-74
2022/10/23 20:36:59;;;;;;;64.30;35.40;;;;;;;9.43;96.95;98732.06;214688;1308;25549;-75
2022/10/23 20:42:02;;;;;;;54.80;33.20;;;;;;;9.36;97.34;98739.97;214629;1309;24327;-74
2022/10/23 20:47:04;;;;;;;57.90;32.50;;;;;;;9.31;97.58;98757.61;214509;1309;22612;-75
2022/10/23 20:52:06;;;;;;;60.90;33.90;;;;;;;9.27;97.74;98749.73;214697;1309;22480;-74
2022/10/23 20:57:07;;;;;;;63.30;31.80;;;;;;;9.23;97.90;98744.75;214663;1308;22562;-75
2022/10/23 21:02:09;;;;;;;57.30;32.90;;;;;;;9.18;98.02;98730.67;214802;1309;22595;-75
2022/10/23 21:07:11;;;;;;;59.10;31.30;;;;;;;9.12;98.00;98733.40;214823;1307;24335;-74
2022/10/23 21:12:15;;;;;;;64.10;34.60;;;;;;;9.05;98.04;98738.58;214650;1308;22415;-75
2022/10/23 21:17:17;;;;;;;61.40;34.30;;;;;;;9.00;98.10;98738.88;214892;1309;22484;-74
2022/10/23 21:22:19;;;;;;;62.00;34.30;;;;;;;8.97;98.20;98744.61;214852;1309;25520;-74
2022/10/23 21:27:21;;;;;;;69.30;37.00;;;;;;;8.95;98.31;98736.02;214627;1309;23292;-74
2022/10/23 21:32:23;;;;;;;70.10;38.90;;;;;;;8.97;98.73;98727.03;214553;1309;25340;-74
2022/10/23 21:37:25;;;;;;;62.10;35.30;;;;;;;8.99;98.85;98728.95;214665;1309;22476;-74
2022/10/23 21:42:27;;;;;;;64.90;36.40;;;;;;;9.02;99.01;98719.79;214625;1309;22495;-74
2022/10/23 21:47:32;;;;;;;59.30;35.10;;;;;;;9.05;99.17;98703.67;214573;1304;22563;-74
2022/10/23 21:52:34;;;;;;;74.30;40.00;;;;;;;9.06;99.15;98706.02;214545;1309;22515;-74
2022/10/23 21:57:35;;;;;;;73.30;40.70;;;;;;;9.05;99.26;98696.78;214686;1307;22463;-75
2022/10/23 22:02:37;;;;;;;67.10;36.10;;;;;;;9.03;99.26;98694.98;214648;1304;22963;-74
2022/10/23 22:07:39;;;;;;;65.80;35.70;;;;;;;9.02;99.42;98703.05;214673;1309;25272;-74
2022/10/23 22:12:41;;;;;;;62.60;35.00;;;;;;;9.00;99.37;98701.31;214839;1305;22675;-74
2022/10/23 22:17:43;;;;;;;64.90;35.70;;;;;;;8.98;99.40;98694.86;214755;1309;22532;-74
2022/10/23 22:22:45;;;;;;;57.60;33.00;;;;;;;8.96;99.54;98687.30;214603;1309;22484;-74
2022/10/23 22:27:47;;;;;;;56.80;31.40;;;;;;;8.96;99.64;98691.30;214821;1308;22591;-73
2022/10/23 22:32:49;;;;;;;50.00;28.80;;;;;;;8.99;99.76;98683.14;214600;1290;22481;-74
2022/10/23 22:37:51;;;;;;;47.40;26.90;;;;;;;9.03;99.93;98680.02;214803;1307;22489;-74
2022/10/23 22:42:53;;;;;;;50.10;26.90;;;;;;;9.07;99.99;98684.04;214794;1303;24233;-74
2022/10/23 22:47:55;;;;;;;47.50;28.60;;;;;;;9.10;99.98;98677.45;214825;1304;22484;-74
2022/10/23 22:52:57;;;;;;;49.10;27.20;;;;;;;9.14;100.00;98665.66;214687;1309;22514;-74
2022/10/23 22:57:58;;;;;;;44.90;25.70;;;;;;;9.18;100.00;98650.48;214552;1309;23748;-74
2022/10/23 23:03:00;;;;;;;42.20;24.90;;;;;;;9.26;100.00;98645.82;214527;1309;25304;-74
2022/10/23 23:08:02;;;;;;;44.00;25.80;;;;;;;9.32;100.00;98653.30;214721;1309;22594;-74
2022/10/23 23:13:07;;;;;;;44.00;24.40;;;;;;;9.36;100.00;98648.50;214831;1309;22565;-73
2022/10/23 23:18:09;;;;;;;35.60;20.80;;;;;;;9.41;100.00;98669.88;214633;1309;23800;-74
2022/10/23 23:23:12;;;;;;;42.40;23.20;;;;;;;9.48;100.00;98654.64;214623;1305;22813;-73